< Typhoon 200107 2001 Season Typhoon 200109 >
Typhoon 200108 (TORAJI)
General InformationTrack Information on Google MapsDetailed Wind InformationList of All Images || NewsDisaster Info.ResourceGoogle EarthGE AnimationAtom FeedGeoJSON
Detalied Best Track (Time Zone = UTC)
Year Month Day Hour Lat. Long. Pressure (hPa) Wind (kt) Class Image Chart
2001 7 25 06 13.6 133.4 1002 0 2 Image Chart
2001 7 25 12 14.3 133.0 1002 0 2 Image Chart
2001 7 25 18 15.1 132.4 1002 0 2 Image Chart
2001 7 26 00 15.9 131.6 1002 0 2 Image Chart
2001 7 26 06 16.4 130.0 1002 0 2 Image Chart
2001 7 26 12 16.6 129.1 1002 0 2 Image Chart
2001 7 26 18 16.8 128.2 1000 0 2 Image Chart
2001 7 27 00 17.1 127.5 994 35 3 Image Chart
2001 7 27 06 17.3 126.8 990 45 3 Image Chart
2001 7 27 12 17.5 126.0 980 55 4 Image Chart
2001 7 27 18 17.9 125.5 970 65 5 Image Chart
2001 7 28 00 18.5 124.8 965 70 5 Image Chart
2001 7 28 06 19.1 124.3 960 75 5 Image Chart
2001 7 28 12 19.9 123.7 960 75 5 Image Chart
2001 7 28 18 20.6 123.1 960 75 5 Image Chart
2001 7 29 00 21.3 122.8 960 75 5 Image Chart
2001 7 29 06 22.2 122.4 960 75 5 Image Chart
2001 7 29 12 23.2 122.1 960 75 5 Image Chart
2001 7 29 15 23.5 121.6 970 65 5 Image Chart
2001 7 29 18 23.8 121.2 975 60 4 Image Chart
2001 7 29 21 24.2 121.1 980 50 4 Image Chart
2001 7 30 00 24.6 121.0 980 50 4 Image Chart
2001 7 30 06 25.3 120.7 985 45 3 Image Chart
2001 7 30 12 25.7 120.2 994 35 3 Image Chart
2001 7 30 18 26.2 119.9 996 0 2 Image Chart
2001 7 31 00 26.9 119.4 1000 0 2 Image Chart
2001 7 31 06 27.8 119.2 1000 0 2 Image Chart
2001 7 31 12 29.1 119.7 1000 0 2 Image Chart
2001 7 31 18 30.5 120.0 998 0 2 Image Chart
2001 8 1 00 32.8 120.2 998 0 2 Image Chart
2001 8 1 06 35.0 120.3 996 0 6 Image Chart
2001 8 1 12 36.7 120.5 994 0 6 Image Chart
2001 8 1 18 38.3 120.5 996 0 6 Image Chart
2001 8 2 00 38.9 120.5 1000 0 6 Image Chart
2001 8 2 06 39.8 120.4 1006 0 6 Image Chart
2001 8 2 12 40.3 120.0 1008 0 6 Image Chart
2001 8 2 18 40.9 119.8 1012 0 6 Image Chart
Japan Meteorological Agency Best Track Data | Correction Date : 2002-01-24
< Typhoon 200107 2001 Season Typhoon 200109 >

Help